Station info - map view · info · telemetry · weather · raw · status · beacons · messages · bulletins · browse · moving · my account
Callsign, ship name or locator: Clear       
It is possible to search using wildcards (*?) after a prefix. Example: OH*
APRS station DK5ES-7 - show graphs
Map loading...
Comment: Berlingo on tour
Mic-E message: En route
Location: 49°59.29' N 7°58.68' E - locator JN39XX77ID - show map - static map
0.6 miles Northeast bearing 56° from Geisenheim, Hesse, Germany [?]
1.3 miles Southwest bearing 230° from Oestrich-Winkel, Rheinland-Pfalz, Germany
32.5 miles West bearing 254° from Frankfurt am Main, Regierungsbezirk Darmstadt, Hesse, Germany
79.4 miles Southeast bearing 145° from Köln (Koeln), Regierungsbezirk Köln, North Rhine-Westphalia, Germany
Last position: 2018-06-21 14:03:07 EDT (2d 3h33m ago)
2018-06-21 20:03:07 CEST local time at Geisenheim, Germany [?]
Altitude: 295 ft
Course: 50°
Speed: 3 MPH
Device: Yaesu: FTM-100D (rig)
Last path: DK5ES-7>TY5YR9 via WIDE1-1,WIDE2-1,qAR,DB0ESG-10 (good)
Positions stored: 2096
Packet rate: 59 seconds between packets on average during 2911 seconds.
Other SSIDs: DK5ES-4 DK5ES-5 DK5ES-9
Stations near current position of DK5ES-7 - show more
callsign distance last heard - EDT      callsign distance last heard - EDT
DB0ESG-101.0 miles 261°2018-06-23 17:25:31 DW32821.5 miles 58°2018-06-23 17:23:02
DD5ZZ1.9 miles 65°2018-06-07 02:54:12 DL1XK-92.2 miles 206°2018-06-13 04:32:42
DL1EFP-72.3 miles 114°2018-06-10 09:57:04 DF7PN-32.6 miles 72°2018-06-06 16:27:39
DK8HM-15.4 miles 247°2018-06-17 14:35:25 DK1KT-105.9 miles 151°2018-06-23 17:21:44
DK1KT5.9 miles 151°2018-06-23 05:21:49 N31105638.2 miles 73°2018-06-16 20:49:19
DFM61488.3 miles 0°2018-06-12 04:03:03 DF7PN-98.3 miles 150°2018-06-21 10:22:26
N31107188.6 miles 194°2018-06-10 15:12:30 DJ8HS-410.4 miles 68°2018-06-20 08:24:04
DJ8HS10.4 miles 68°2018-06-22 17:20:08 DJ8HS-ios10.4 miles 68°2018-06-21 14:02:09
DJ8HS-110.5 miles 68°2018-06-23 17:34:50 DL1JU-810.8 miles 70°2018-06-19 11:24:06
DB0VA-B10.8 miles 39°2018-06-23 17:31:15 DB0VA B10.8 miles 39°2018-06-23 17:31:05
Stations which heard DK5ES-7 directly on radio –
callsign pkts first heard - EDT last heard longest (tx => rx) longest at - EDT
DB0MI 2 2018-06-19 09:53:29 2018-06-19 09:56:08 JO40II > JN49PS 47.5 miles 146° 2018-06-19 09:56:08
DB0KH 5 2018-06-19 10:45:24 2018-06-19 11:12:09 JO40WV > JO40RV 18.4 miles 276° 2018-06-19 11:12:09
DB0KT 46 2018-06-19 09:11:50 2018-06-21 13:35:05 JO40EB > JO40PL 49.0 miles 52° 2018-06-21 13:35:05
DB0RIE 15 2018-06-19 12:16:48 2018-06-19 12:37:49 JO50IV > JO50NV 19.3 miles 94° 2018-06-19 12:16:48
DB0REN 2 2018-06-19 12:33:02 2018-06-19 12:37:30 JO50OW > JO50RK 36.0 miles 165° 2018-06-19 12:37:30
DB0XIN 2 2018-06-19 09:13:18 2018-06-21 13:32:30 JO40FB > JN49FW 7.9 miles 181° 2018-06-21 13:32:30
DB0ESA 5 2018-06-19 11:31:15 2018-06-19 12:04:47 JO50FX > JO50DX 5.9 miles 268° 2018-06-19 12:04:47
DB0TAN 3 2018-06-19 11:20:37 2018-06-19 12:00:45 JO51DA > JO40XL 39.4 miles 205° 2018-06-19 12:00:45
DB0HDF 4 2018-06-19 12:41:56 2018-06-19 12:49:28 JO50QW > JO50WV 21.3 miles 95° 2018-06-19 12:41:56
DK3RW-2 4 2018-06-19 10:40:01 2018-06-19 10:42:52 JO40OR > JO40LQ 10.6 miles 248° 2018-06-19 10:42:52
DB0FUL 5 2018-06-19 10:55:29 2018-06-19 11:27:02 JO51BA > JO40UO 34.9 miles 215° 2018-06-19 11:27:02
DK3RW-10 3 2018-06-19 10:30:18 2018-06-19 10:34:55 JO40MQ > JO40MO 5.4 miles 188° 2018-06-19 10:34:55
DJ8HS-1 26 2018-06-19 08:51:27 2018-06-21 13:53:52 JN49AX > JO40CB 9.0 miles 69° 2018-06-21 13:53:52
DO3EF-10 9 2018-06-19 10:32:55 2018-06-19 10:54:35 JO40RS > JO40MQ 19.4 miles 249° 2018-06-19 10:54:35
DB0FDA 13 2018-06-19 08:59:11 2018-06-21 13:46:15 JO40IH > JN49HU 30.8 miles 184° 2018-06-19 09:47:34
DB0FTS-10 1 2018-06-19 12:17:20 2018-06-19 12:17:20 JO50IV > JO50IO 20.0 miles 174° 2018-06-19 12:17:20
DF8WO-9 1 2018-06-19 12:32:17 2018-06-19 12:32:17 JO50NW > JO50NW 1.6 miles 72° 2018-06-19 12:32:17
DB0LDK 4 2018-06-19 10:14:40 2018-06-19 10:53:22 JO40RS > JO40GM 43.5 miles 247° 2018-06-19 10:53:22
DL1JU-13 19 2018-06-19 08:59:09 2018-06-21 13:45:11 JO40BA > JO40EA 10.5 miles 97° 2018-06-19 08:59:09
DG7FDL-10 11 2018-06-19 11:03:31 2018-06-19 11:12:39 JO40WV > JO40UU 7.0 miles 258° 2018-06-19 11:12:39
DB0ESG-10 14 2018-06-19 08:37:34 2018-06-21 14:03:07 JO40AA > JN39XX 2.9 miles 250° 2018-06-19 08:52:03
DF4AE-11 1 2018-06-19 12:39:23 2018-06-19 12:39:23 JO50PW > JO51SA 11.3 miles 62° 2018-06-19 12:39:23
DB0ERF-10 11 2018-06-19 12:17:48 2018-06-19 12:43:25 JO50IV > JO50MX 15.5 miles 74° 2018-06-19 12:17:48
DL5TW-13 1 2018-06-19 12:28:10 2018-06-19 12:28:10 JO50LV > JO50JR 13.3 miles 217° 2018-06-19 12:28:10
DB0REI-10 1 2018-06-19 10:28:49 2018-06-19 10:28:49 JO40LP > JO40KO 1.4 miles 239° 2018-06-19 10:28:49
DB0INS 17 2018-06-19 11:30:23 2018-06-19 12:30:14 JO50MV > JO50FU 25.7 miles 261° 2018-06-19 12:30:14
DB0GIS-10 51 2018-06-19 09:47:30 2018-06-21 13:14:36 JO40IG > JO40JN 19.0 miles 13° 2018-06-21 13:14:36
DB0AIS 12 2018-06-19 09:11:48 2018-06-21 13:46:12 JO40BB > JN49HX 20.7 miles 101° 2018-06-21 13:46:12
DB0SBN 8 2018-06-19 11:34:33 2018-06-19 12:09:47 JO51DA > JO50HX 14.7 miles 94° 2018-06-19 11:34:33
DB0SLF 4 2018-06-19 12:29:12 2018-06-19 12:41:23 JO50MV > JO50QP 23.7 miles 144° 2018-06-19 12:29:12
DB0JEN 3 2018-06-19 12:50:00 2018-06-19 13:00:17 JO50SW > JO50TU 4.3 miles 153° 2018-06-19 13:00:17

Only position packets which were originated by the station are shown here. The range statistics show some extra long hops, because some digipeaters do not correctly add themselves to the digipeater path. Please check the raw packets.
About this site
This page shows real-time information collected from the Automatic Position Reporting System Internet network (APRS-IS). APRS is used by amateur (ham) radio operators to transmit real-time position information, weather data, telemetry and messages over the radio. A vehicle equipped with a GPS receiver, a VHF transmitter or HF transceiver and a small computer device called a tracker transmits it's location, speed and course in a small data packet, which is then received by a nearby iGate receiving site which forwards the packet on the Internet. Systems connected to the Internet can send information on the APRS-IS without a radio transmitter, or collect and display information transmitted anywhere in the world.
FAQ · Blog · Discussion group · Linking to aprs.fi · AIS sites · Service status · Database statistics · Advertising on aprs.fi · Technical details · API · Change log · Planned changes · Credits and thanks · Terms Of Service · iPhone/iPad APRS